Time;durP1;ratioP1;P1;durP2;ratioP2;P2;SDS_P1;SDS_P2;PMS_P1;PMS_P2;Temp;Humidity;BMP_temperature;BMP_pressure;BME280_temperature;BME280_humidity;BME280_pressure;Samples;Min_cycle;Max_cycle;Signal;HPM_P1;HPM_P2
2024/03/05 00:04:51;;;;;;;19.42;8.82;;;;;;;;;;10383497;28;20476;-86
2024/03/05 00:09:55;;;;;;;15.45;8.55;;;;;;;;;;10389669;28;20408;-87
2024/03/05 00:14:58;;;;;;;11.98;7.85;;;;;;;;;;10387895;28;20774;-88
2024/03/05 00:20:02;;;;;;;11.38;7.78;;;;;;;;;;10399657;28;20411;-88
2024/03/05 00:25:07;;;;;;;13.00;7.63;;;;;;;;;;10393842;28;20843;-88
2024/03/05 00:30:13;;;;;;;15.35;8.43;;;;;;;;;;10395416;28;20768;-87
2024/03/05 00:35:17;;;;;;;14.52;8.23;;;;;;;;;;10398089;28;20409;-87
2024/03/05 00:40:19;;;;;;;12.97;7.90;;;;;;;;;;10396022;28;20545;-87
2024/03/05 00:45:21;;;;;;;12.53;7.50;;;;;;;;;;10397399;28;20435;-88
2024/03/05 00:50:25;;;;;;;14.15;8.00;;;;;;;;;;10397621;28;20406;-87
2024/03/05 00:55:28;;;;;;;10.57;7.53;;;;;;;;;;10394930;28;20476;-87
2024/03/05 01:00:30;;;;;;;13.13;7.55;;;;;;;;;;10397086;28;20411;-88
2024/03/05 01:05:34;;;;;;;12.60;8.35;;;;;;;;;;10394504;28;20469;-87
2024/03/05 01:10:37;;;;;;;13.10;7.93;;;;;;;;;;10391279;28;20558;-86
2024/03/05 01:15:40;;;;;;;11.77;7.90;;;;;;;;;;10396683;28;20463;-87
2024/03/05 01:20:43;;;;;;;11.20;7.85;;;;;;;;;;10391688;28;20411;-87
2024/03/05 01:25:46;;;;;;;11.13;7.63;;;;;;;;;;10397963;28;20959;-88
2024/03/05 01:30:48;;;;;;;13.52;8.35;;;;;;;;;;10382919;28;20417;-87
2024/03/05 01:35:52;;;;;;;13.45;8.65;;;;;;;;;;10380179;28;20449;-88
2024/03/05 01:40:55;;;;;;;16.60;8.07;;;;;;;;;;10388219;28;20417;-87
2024/03/05 01:45:57;;;;;;;12.05;8.15;;;;;;;;;;10396038;28;20496;-87
2024/03/05 01:51:02;;;;;;;12.23;8.10;;;;;;;;;;10389766;28;20973;-87
2024/03/05 01:56:07;;;;;;;13.23;7.40;;;;;;;;;;10390406;28;20920;-87
2024/03/05 02:01:10;;;;;;;11.88;7.47;;;;;;;;;;10390711;28;20830;-88
2024/03/05 02:06:16;;;;;;;15.85;7.90;;;;;;;;;;10389520;28;20459;-88
2024/03/05 02:11:19;;;;;;;11.23;7.72;;;;;;;;;;10389758;28;20473;-88
2024/03/05 02:16:21;;;;;;;13.90;8.63;;;;;;;;;;10396219;28;20391;-88
2024/03/05 02:21:25;;;;;;;13.50;7.97;;;;;;;;;;10393645;28;20477;-88
2024/03/05 02:26:29;;;;;;;12.32;7.72;;;;;;;;;;10394732;28;20879;-88
2024/03/05 02:31:31;;;;;;;13.70;7.97;;;;;;;;;;10395048;28;20500;-88
2024/03/05 02:55:25;;;;;;;16.65;9.35;;;;;;;;;;10384674;28;20498;-87
2024/03/05 03:00:27;;;;;;;15.23;8.30;;;;;;;;;;10386283;28;20438;-87
2024/03/05 03:05:29;;;;;;;12.85;8.60;;;;;;;;;;10391296;28;20421;-87
2024/03/05 03:10:33;;;;;;;13.80;8.15;;;;;;;;;;10390907;28;20973;-88
2024/03/05 03:15:36;;;;;;;14.57;8.55;;;;;;;;;;10385885;28;20409;-88
2024/03/05 03:20:38;;;;;;;13.77;7.50;;;;;;;;;;10382394;28;20527;-87
2024/03/05 03:25:43;;;;;;;14.40;8.30;;;;;;;;;;10391864;28;20852;-88
2024/03/05 03:30:45;;;;;;;15.50;7.47;;;;;;;;;;10387380;28;20407;-87
2024/03/05 03:35:48;;;;;;;12.43;7.03;;;;;;;;;;10391549;28;20415;-87
2024/03/05 03:40:52;;;;;;;14.83;7.73;;;;;;;;;;10392327;28;20441;-88
2024/03/05 03:45:56;;;;;;;10.05;7.15;;;;;;;;;;10393642;28;20458;-86
2024/03/05 03:50:59;;;;;;;14.57;6.57;;;;;;;;;;10394667;28;20444;-88
2024/03/05 03:56:03;;;;;;;12.57;6.78;;;;;;;;;;10406664;28;20452;-87
2024/03/05 04:01:07;;;;;;;11.93;6.28;;;;;;;;;;10400527;28;20481;-88
2024/03/05 04:06:10;;;;;;;10.38;6.15;;;;;;;;;;10400264;28;20466;-87
2024/03/05 04:11:13;;;;;;;10.17;5.80;;;;;;;;;;10393868;28;20486;-87
2024/03/05 04:16:16;;;;;;;14.02;6.60;;;;;;;;;;10395271;28;20403;-87
2024/03/05 04:21:19;;;;;;;9.40;6.03;;;;;;;;;;10399312;28;20413;-87
2024/03/05 04:26:26;;;;;;;10.45;6.15;;;;;;;;;;10397997;28;20953;-87
2024/03/05 04:31:34;;;;;;;11.13;5.75;;;;;;;;;;10389322;28;20395;-88
2024/03/05 04:36:38;;;;;;;10.75;5.90;;;;;;;;;;10382854;28;20477;-86
2024/03/05 04:41:45;;;;;;;8.47;5.33;;;;;;;;;;10393964;28;20475;-87
2024/03/05 04:46:48;;;;;;;10.88;5.22;;;;;;;;;;10397361;28;20909;-87
2024/03/05 04:51:50;;;;;;;8.85;5.20;;;;;;;;;;10393558;28;20469;-87
2024/03/05 04:56:54;;;;;;;10.87;5.70;;;;;;;;;;10396290;28;20520;-87
2024/03/05 05:01:56;;;;;;;11.15;5.20;;;;;;;;;;10397279;28;20472;-87
2024/03/05 05:06:59;;;;;;;10.00;4.78;;;;;;;;;;10398957;28;20421;-87
2024/03/05 05:12:03;;;;;;;9.15;4.78;;;;;;;;;;10392181;28;20417;-87
2024/03/05 05:17:05;;;;;;;10.15;5.30;;;;;;;;;;10377347;28;20479;-87
2024/03/05 05:22:07;;;;;;;9.68;5.70;;;;;;;;;;10393410;28;20939;-87
2024/03/05 05:27:12;;;;;;;9.80;5.00;;;;;;;;;;10392042;28;20902;-87
2024/03/05 05:32:14;;;;;;;11.80;4.75;;;;;;;;;;10394757;28;20415;-87
2024/03/05 05:37:17;;;;;;;11.10;5.78;;;;;;;;;;10392675;28;20449;-87
2024/03/05 05:42:23;;;;;;;11.13;6.70;;;;;;;;;;10391465;28;20437;-86
2024/03/05 05:47:26;;;;;;;19.63;7.50;;;;;;;;;;10385081;28;21077;-87
2024/03/05 05:52:28;;;;;;;23.33;12.23;;;;;;;;;;10391264;28;20982;-86
2024/03/05 05:57:32;;;;;;;13.43;7.10;;;;;;;;;;10384976;28;20450;-88
2024/03/05 06:02:34;;;;;;;15.83;8.97;;;;;;;;;;10394216;28;21107;-86
2024/03/05 06:07:36;;;;;;;15.43;7.03;;;;;;;;;;10384516;28;20460;-88
2024/03/05 06:12:41;;;;;;;13.75;7.75;;;;;;;;;;10380793;28;20870;-88
2024/03/05 06:17:43;;;;;;;12.52;6.30;;;;;;;;;;10385480;28;20452;-87
2024/03/05 06:22:46;;;;;;;17.37;7.33;;;;;;;;;;10383521;28;20466;-87
2024/03/05 06:27:52;;;;;;;14.50;7.30;;;;;;;;;;10389403;28;20459;-87
2024/03/05 06:32:54;;;;;;;12.13;7.90;;;;;;;;;;10391554;28;20814;-88
2024/03/05 06:37:57;;;;;;;18.60;7.97;;;;;;;;;;10384654;28;20409;-87
2024/03/05 06:43:05;;;;;;;15.50;7.87;;;;;;;;;;10377321;28;20536;-85
2024/03/05 06:48:08;;;;;;;13.80;8.18;;;;;;;;;;10384820;28;20518;-85
2024/03/05 06:58:33;;;;;;;14.20;8.63;;;;;;;;;;10375060;28;20465;-86
2024/03/05 07:03:36;;;;;;;14.55;7.97;;;;;;;;;;10375620;28;20903;-86
2024/03/05 07:08:40;;;;;;;17.00;7.90;;;;;;;;;;10380836;28;20546;-86
2024/03/05 07:13:47;;;;;;;9.93;7.30;;;;;;;;;;10377194;28;20526;-86
2024/03/05 07:18:50;;;;;;;16.50;7.88;;;;;;;;;;10385675;28;20427;-86
2024/03/05 07:23:53;;;;;;;14.20;7.63;;;;;;;;;;10388163;28;20923;-86
2024/03/05 07:28:57;;;;;;;14.63;8.13;;;;;;;;;;10396924;28;20912;-86
2024/03/05 07:34:00;;;;;;;13.27;7.63;;;;;;;;;;10387212;28;20479;-86
2024/03/05 07:39:05;;;;;;;14.43;7.77;;;;;;;;;;10384863;28;20501;-86
2024/03/05 07:44:09;;;;;;;14.30;8.35;;;;;;;;;;10395544;28;20405;-86
2024/03/05 07:49:12;;;;;;;13.32;8.30;;;;;;;;;;10398110;28;20457;-86
2024/03/05 07:54:14;;;;;;;12.02;7.82;;;;;;;;;;10383867;23;20423;-90
2024/03/05 07:59:18;;;;;;;11.90;7.45;;;;;;;;;;10356527;28;20553;-90
2024/03/05 08:04:20;;;;;;;21.92;7.43;;;;;;;;;;10354379;28;20411;-90
2024/03/05 08:09:23;;;;;;;40.17;8.23;;;;;;;;;;10350725;28;20564;-89
2024/03/05 08:14:27;;;;;;;44.83;8.33;;;;;;;;;;10351693;28;20820;-91
2024/03/05 08:19:30;;;;;;;11.88;4.63;;;;;;;;;;10354053;28;20520;-89
2024/03/05 08:24:32;;;;;;;13.68;5.22;;;;;;;;;;10363272;28;20428;-90
2024/03/05 08:29:37;;;;;;;6.85;4.15;;;;;;;;;;10364556;28;20427;-89
2024/03/05 08:34:40;;;;;;;12.85;4.70;;;;;;;;;;10348383;28;20407;-91
2024/03/05 08:39:43;;;;;;;9.77;4.77;;;;;;;;;;10353593;28;20489;-92
2024/03/05 08:44:47;;;;;;;10.40;4.40;;;;;;;;;;10357029;28;20442;-91
2024/03/05 08:49:50;;;;;;;13.52;4.32;;;;;;;;;;10356311;28;20490;-91
2024/03/05 08:54:53;;;;;;;7.85;3.72;;;;;;;;;;10378361;28;20480;-91
2024/03/05 08:59:57;;;;;;;6.23;3.30;;;;;;;;;;10376382;28;20875;-91
2024/03/05 09:04:59;;;;;;;8.15;4.05;;;;;;;;;;10374554;28;20411;-90
2024/03/05 09:10:01;;;;;;;7.82;3.30;;;;;;;;;;10362289;28;20423;-91
2024/03/05 09:15:08;;;;;;;7.47;3.03;;;;;;;;;;10363710;28;20873;-90
2024/03/05 09:20:15;;;;;;;7.30;3.33;;;;;;;;;;10353838;28;20411;-91
2024/03/05 09:25:17;;;;;;;7.53;3.00;;;;;;;;;;10358209;28;20480;-91
2024/03/05 09:30:21;;;;;;;5.10;3.10;;;;;;;;;;10353707;28;20425;-90
2024/03/05 09:35:24;;;;;;;31.60;6.40;;;;;;;;;;10354180;28;20436;-92
2024/03/05 09:40:26;;;;;;;59.30;9.33;;;;;;;;;;10348168;28;20411;-92
2024/03/05 09:45:36;;;;;;;25.70;5.30;;;;;;;;;;10372249;28;20428;-91
2024/03/05 09:50:40;;;;;;;9.53;3.80;;;;;;;;;;10352904;28;20469;-91
2024/03/05 09:55:43;;;;;;;10.45;3.65;;;;;;;;;;10357036;28;20830;-91
2024/03/05 10:00:47;;;;;;;10.45;3.55;;;;;;;;;;10346260;28;20399;-91
2024/03/05 10:05:50;;;;;;;8.70;3.38;;;;;;;;;;10345707;28;20485;-91
2024/03/05 10:11:00;;;;;;;5.13;3.00;;;;;;;;;;10347627;28;20420;-90
2024/03/05 10:16:20;;;;;;;6.77;3.23;;;;;;;;;;10345017;28;20462;-92
2024/03/05 10:21:24;;;;;;;7.32;3.35;;;;;;;;;;10344353;28;20411;-92
2024/03/05 10:26:28;;;;;;;12.03;4.37;;;;;;;;;;10353594;28;20488;-91
2024/03/05 10:31:33;;;;;;;8.57;3.63;;;;;;;;;;10353395;28;20411;-92
2024/03/05 10:36:38;;;;;;;7.07;3.60;;;;;;;;;;10353143;28;20509;-90
2024/03/05 10:41:41;;;;;;;8.60;3.50;;;;;;;;;;10347920;28;20442;-93
2024/03/05 10:46:46;;;;;;;5.60;3.60;;;;;;;;;;10361608;28;20495;-92
2024/03/05 10:51:51;;;;;;;5.95;3.60;;;;;;;;;;10345073;28;20507;-91
2024/03/05 10:56:53;;;;;;;6.90;3.97;;;;;;;;;;10344390;28;20406;-91
2024/03/05 11:01:59;;;;;;;8.73;3.33;;;;;;;;;;10359153;28;20397;-90
2024/03/05 11:07:05;;;;;;;7.50;3.58;;;;;;;;;;10357774;28;20489;-90
2024/03/05 11:12:11;;;;;;;7.82;3.40;;;;;;;;;;10344717;28;20413;-91
2024/03/05 11:17:17;;;;;;;8.60;4.05;;;;;;;;;;10346007;28;20416;-91
2024/03/05 11:22:22;;;;;;;5.93;3.30;;;;;;;;;;10341304;28;20765;-91
2024/03/05 11:27:25;;;;;;;9.00;3.67;;;;;;;;;;10350603;28;20564;-91
2024/03/05 11:32:29;;;;;;;6.40;3.65;;;;;;;;;;10349317;28;20421;-91
2024/03/05 11:37:47;;;;;;;7.15;2.72;;;;;;;;;;10347706;28;21055;-91
2024/03/05 11:42:52;;;;;;;7.40;2.88;;;;;;;;;;10346897;28;20403;-92
2024/03/05 11:47:58;;;;;;;10.82;3.45;;;;;;;;;;10342699;28;20983;-90
2024/03/05 11:53:01;;;;;;;7.83;3.00;;;;;;;;;;10344425;28;20938;-91
2024/03/05 11:58:04;;;;;;;14.17;3.60;;;;;;;;;;10346246;28;20469;-91
2024/03/05 12:03:08;;;;;;;8.40;3.38;;;;;;;;;;10350458;28;20445;-91
2024/03/05 12:08:10;;;;;;;8.17;2.53;;;;;;;;;;10355196;28;20450;-91
2024/03/05 12:13:18;;;;;;;15.27;3.20;;;;;;;;;;10357824;28;20484;-91
2024/03/05 12:18:24;;;;;;;4.75;2.55;;;;;;;;;;10367964;28;20487;-90
2024/03/05 12:23:26;;;;;;;6.72;2.38;;;;;;;;;;10365446;28;20497;-90
2024/03/05 12:28:29;;;;;;;6.90;2.35;;;;;;;;;;10347139;28;20936;-90
2024/03/05 12:33:33;;;;;;;5.97;2.30;;;;;;;;;;10369078;28;20961;-90
2024/03/05 12:38:35;;;;;;;4.72;1.60;;;;;;;;;;10353492;28;21001;-91
2024/03/05 12:43:38;;;;;;;9.23;2.28;;;;;;;;;;10351845;28;20449;-89
2024/03/05 12:48:41;;;;;;;5.25;2.00;;;;;;;;;;10360972;28;20418;-90
2024/03/05 12:53:44;;;;;;;9.05;2.30;;;;;;;;;;10329007;28;20452;-89
2024/03/05 12:58:46;;;;;;;5.10;2.10;;;;;;;;;;10344384;28;20550;-89
2024/03/05 13:03:50;;;;;;;7.13;2.00;;;;;;;;;;10345146;28;20560;-90
2024/03/05 13:08:53;;;;;;;5.25;2.22;;;;;;;;;;10348852;28;20513;-90
2024/03/05 13:13:58;;;;;;;5.60;1.90;;;;;;;;;;10359530;28;20469;-90
2024/03/05 13:19:02;;;;;;;4.75;1.75;;;;;;;;;;10355288;28;21186;-87
2024/03/05 13:24:07;;;;;;;8.20;2.38;;;;;;;;;;10359543;28;20419;-88
2024/03/05 13:29:10;;;;;;;5.47;2.25;;;;;;;;;;10349117;28;20593;-89
2024/03/05 13:34:14;;;;;;;6.43;2.50;;;;;;;;;;10346635;28;21007;-89
2024/03/05 13:39:18;;;;;;;5.97;2.10;;;;;;;;;;10360882;28;20468;-88
2024/03/05 13:44:22;;;;;;;7.23;2.43;;;;;;;;;;10368991;28;20458;-89
2024/03/05 13:49:25;;;;;;;5.00;1.80;;;;;;;;;;10359890;28;20466;-88
2024/03/05 15:15:10;;;;;;;6.00;1.95;;;;;;;;;;10368112;28;20486;-90
2024/03/05 15:20:15;;;;;;;4.28;2.13;;;;;;;;;;10381075;28;20442;-90
2024/03/05 15:25:20;;;;;;;6.90;1.92;;;;;;;;;;10379998;28;20415;-88
2024/03/05 15:30:25;;;;;;;5.80;2.50;;;;;;;;;;10383236;28;20522;-90
2024/03/05 15:35:28;;;;;;;11.23;2.00;;;;;;;;;;10381392;28;20542;-91
2024/03/05 15:40:32;;;;;;;6.73;2.30;;;;;;;;;;10388008;28;20453;-91
2024/03/05 15:45:37;;;;;;;5.77;2.00;;;;;;;;;;10384637;28;20901;-90
2024/03/05 15:50:41;;;;;;;7.65;1.95;;;;;;;;;;10384048;28;20452;-90
2024/03/05 15:55:44;;;;;;;7.43;2.00;;;;;;;;;;10385278;28;20499;-90
2024/03/05 16:00:49;;;;;;;4.55;1.90;;;;;;;;;;10378827;28;20407;-84
2024/03/05 16:05:51;;;;;;;4.27;1.80;;;;;;;;;;10426789;28;20459;-92
2024/03/05 16:10:53;;;;;;;9.35;2.10;;;;;;;;;;10396196;28;20505;-90
2024/03/05 16:15:57;;;;;;;8.27;2.10;;;;;;;;;;10410370;28;20415;-90
2024/03/05 16:21:01;;;;;;;7.57;1.70;;;;;;;;;;10429281;28;20471;-91
2024/03/05 16:26:05;;;;;;;6.07;3.00;;;;;;;;;;10398569;28;20528;-91
2024/03/05 16:31:10;;;;;;;6.03;2.77;;;;;;;;;;10415171;28;20485;-92
2024/03/05 16:36:12;;;;;;;9.07;2.80;;;;;;;;;;10400984;28;20425;-92
2024/03/05 16:41:14;;;;;;;6.38;2.80;;;;;;;;;;10410757;28;20447;-91
2024/03/05 16:46:18;;;;;;;5.68;2.38;;;;;;;;;;10426507;28;20478;-89
2024/03/05 16:51:21;;;;;;;5.38;2.20;;;;;;;;;;10400327;28;20419;-92
2024/03/05 16:56:23;;;;;;;8.30;3.35;;;;;;;;;;10393927;28;20411;-92
2024/03/05 17:01:27;;;;;;;6.30;3.20;;;;;;;;;;10408387;28;20448;-92
2024/03/05 17:06:30;;;;;;;7.22;3.10;;;;;;;;;;10423524;28;20404;-91
2024/03/05 17:11:32;;;;;;;7.82;3.28;;;;;;;;;;10419095;28;20499;-91
2024/03/05 17:16:40;;;;;;;10.68;3.33;;;;;;;;;;10406460;28;20940;-91
2024/03/05 17:21:42;;;;;;;10.43;3.30;;;;;;;;;;10401326;28;20471;-90
2024/03/05 17:26:45;;;;;;;11.60;3.83;;;;;;;;;;10398720;28;20453;-91
2024/03/05 17:31:49;;;;;;;12.05;3.63;;;;;;;;;;10418600;28;20468;-89
2024/03/05 17:36:52;;;;;;;8.37;4.07;;;;;;;;;;10409650;28;20496;-86
2024/03/05 17:41:56;;;;;;;16.93;6.60;;;;;;;;;;10399511;28;20487;-85
2024/03/05 17:47:00;;;;;;;10.52;5.70;;;;;;;;;;10403592;28;20451;-87
2024/03/05 17:52:05;;;;;;;11.07;5.23;;;;;;;;;;10425147;28;20416;-87
2024/03/05 17:57:11;;;;;;;13.10;4.75;;;;;;;;;;10401120;28;20488;-87
2024/03/05 18:02:15;;;;;;;13.32;5.10;;;;;;;;;;10403750;28;20445;-87
2024/03/05 18:07:18;;;;;;;11.75;5.28;;;;;;;;;;10382029;28;20446;-85
2024/03/05 18:12:20;;;;;;;15.10;6.77;;;;;;;;;;10381515;28;20456;-88
2024/03/05 18:17:24;;;;;;;16.48;6.93;;;;;;;;;;10386570;28;20513;-88
2024/03/05 18:22:28;;;;;;;13.82;6.10;;;;;;;;;;10376820;28;20453;-88
2024/03/05 18:27:32;;;;;;;11.90;5.97;;;;;;;;;;10368392;28;20474;-89
2024/03/05 18:32:37;;;;;;;14.05;6.25;;;;;;;;;;10372837;28;20545;-88
2024/03/05 18:37:42;;;;;;;17.02;7.22;;;;;;;;;;10381886;28;20414;-89
2024/03/05 18:42:46;;;;;;;21.33;7.50;;;;;;;;;;10400529;28;20448;-94
2024/03/05 18:47:51;;;;;;;17.10;8.13;;;;;;;;;;10420150;28;20405;-93
2024/03/05 18:52:53;;;;;;;15.38;8.73;;;;;;;;;;10424270;28;20429;-95
2024/03/05 18:57:56;;;;;;;19.70;9.45;;;;;;;;;;10426413;28;20417;-89
2024/03/05 19:03:00;;;;;;;17.35;9.45;;;;;;;;;;10377395;28;20415;-93
2024/03/05 19:08:04;;;;;;;18.90;9.93;;;;;;;;;;10387041;28;20419;-91
2024/03/05 19:13:07;;;;;;;19.03;11.13;;;;;;;;;;10392242;28;20407;-91
2024/03/05 19:18:10;;;;;;;17.95;11.10;;;;;;;;;;10395726;28;20908;-90
2024/03/05 19:23:13;;;;;;;19.10;11.20;;;;;;;;;;10382590;28;20598;-89
2024/03/05 19:28:16;;;;;;;23.83;14.02;;;;;;;;;;10391714;28;20417;-91
2024/03/05 19:33:19;;;;;;;22.53;13.37;;;;;;;;;;10388525;28;20471;-91
2024/03/05 19:38:22;;;;;;;20.38;13.45;;;;;;;;;;10408967;28;20446;-91
2024/03/05 19:43:24;;;;;;;24.98;14.68;;;;;;;;;;10389917;28;20484;-76
2024/03/05 19:48:28;;;;;;;26.60;14.80;;;;;;;;;;10374181;28;20446;-92
2024/03/05 19:53:31;;;;;;;25.73;15.25;;;;;;;;;;10369877;28;20888;-91
2024/03/05 19:58:33;;;;;;;23.75;14.60;;;;;;;;;;10381162;28;20515;-90
2024/03/05 20:03:37;;;;;;;26.60;14.75;;;;;;;;;;10383973;28;20408;-87
2024/03/05 20:08:45;;;;;;;23.10;14.35;;;;;;;;;;10374959;28;20437;-88
2024/03/05 20:13:47;;;;;;;20.52;13.57;;;;;;;;;;10379495;28;20457;-89
2024/03/05 20:19:01;;;;;;;14.37;9.47;;;;;;;;;;10374888;28;20433;-86
2024/03/05 20:24:14;;;;;;;12.95;8.60;;;;;;;;;;10378585;28;20447;-86
2024/03/05 20:29:23;;;;;;;12.90;8.03;;;;;;;;;;10343166;28;20550;-84
2024/03/05 20:34:36;;;;;;;11.20;8.05;;;;;;;;;;10377728;28;20464;-85
2024/03/05 20:39:54;;;;;;;12.57;7.90;;;;;;;;;;10374235;28;20933;-84
2024/03/05 20:45:04;;;;;;;13.75;8.75;;;;;;;;;;10385721;28;20448;-86
2024/03/05 20:50:15;;;;;;;14.13;9.68;;;;;;;;;;10367327;28;20519;-86
2024/03/05 20:55:22;;;;;;;15.40;10.10;;;;;;;;;;10379256;28;20447;-85
2024/03/05 21:00:28;;;;;;;14.07;8.93;;;;;;;;;;10414348;28;20477;-85
2024/03/05 21:05:31;;;;;;;12.32;8.55;;;;;;;;;;10415774;28;20441;-85
2024/03/05 21:10:34;;;;;;;13.90;8.37;;;;;;;;;;10416086;28;20491;-86
2024/03/05 21:15:37;;;;;;;11.63;7.47;;;;;;;;;;10416896;28;20533;-86
2024/03/05 21:20:41;;;;;;;11.95;7.82;;;;;;;;;;10416260;28;20451;-86
2024/03/05 21:25:43;;;;;;;10.23;6.63;;;;;;;;;;10414948;28;20417;-88
2024/03/05 21:30:46;;;;;;;10.30;6.60;;;;;;;;;;10399205;28;20458;-87
2024/03/05 21:35:49;;;;;;;9.67;5.33;;;;;;;;;;10417296;28;20482;-88
2024/03/05 21:40:52;;;;;;;9.20;5.82;;;;;;;;;;10382670;28;20458;-87
2024/03/05 21:45:55;;;;;;;8.13;6.07;;;;;;;;;;10379145;28;20810;-87
2024/03/05 21:50:59;;;;;;;8.18;5.68;;;;;;;;;;10382351;28;20450;-87
2024/03/05 21:56:01;;;;;;;10.50;6.73;;;;;;;;;;10387649;28;20848;-87
2024/03/05 22:01:04;;;;;;;9.97;6.00;;;;;;;;;;10382686;28;21104;-87
2024/03/05 22:06:09;;;;;;;6.72;4.95;;;;;;;;;;10382908;28;20430;-88
2024/03/05 22:11:12;;;;;;;10.50;4.78;;;;;;;;;;10380684;28;20469;-87
2024/03/05 22:16:14;;;;;;;6.60;3.88;;;;;;;;;;10381856;28;20443;-88
2024/03/05 22:21:18;;;;;;;7.18;4.63;;;;;;;;;;10382618;28;20446;-88
2024/03/05 22:26:21;;;;;;;10.67;4.57;;;;;;;;;;10384131;28;20519;-88
2024/03/05 22:31:23;;;;;;;8.23;4.93;;;;;;;;;;10382439;28;20507;-86
2024/03/05 22:36:27;;;;;;;6.63;3.70;;;;;;;;;;10388776;28;20719;-85
2024/03/05 22:41:29;;;;;;;7.17;3.67;;;;;;;;;;10390062;28;20475;-86
2024/03/05 22:46:32;;;;;;;8.07;3.77;;;;;;;;;;10389569;28;20447;-86
2024/03/05 22:51:36;;;;;;;7.57;3.67;;;;;;;;;;10375552;28;20447;-87
2024/03/05 22:56:38;;;;;;;6.25;3.35;;;;;;;;;;10393772;28;20411;-87
2024/03/05 23:01:40;;;;;;;6.45;2.88;;;;;;;;;;10385968;28;20504;-87
2024/03/05 23:06:44;;;;;;;5.95;2.75;;;;;;;;;;10390523;28;20452;-86
2024/03/05 23:11:46;;;;;;;3.33;2.17;;;;;;;;;;10390656;28;20462;-87
2024/03/05 23:16:50;;;;;;;6.20;2.10;;;;;;;;;;10402471;28;20425;-87
2024/03/05 23:21:54;;;;;;;6.00;2.45;;;;;;;;;;10384391;28;20868;-87
2024/03/05 23:26:56;;;;;;;5.27;2.47;;;;;;;;;;10391917;28;20479;-87
2024/03/05 23:31:59;;;;;;;6.13;2.95;;;;;;;;;;10399609;28;20942;-87
2024/03/05 23:37:04;;;;;;;6.10;2.88;;;;;;;;;;10399645;28;20473;-86
2024/03/05 23:42:07;;;;;;;6.83;3.40;;;;;;;;;;10398535;28;20829;-87
2024/03/05 23:47:09;;;;;;;5.78;3.17;;;;;;;;;;10395985;28;20401;-87
2024/03/05 23:52:13;;;;;;;7.60;2.80;;;;;;;;;;10391395;28;20488;-87
2024/03/05 23:57:15;;;;;;;5.32;2.90;;;;;;;;;;10385747;28;20515;-87
